< < Back
Terminal Aerodrome Forecast


Current Version              Previous Versions:   1  2  3  4  5  6  7  8  9  

Terminal Aerodrome Forecast

344
FTUS42 KTAE 281720
TAFTLH
TAF
KTLH 281720Z 2818/2918 27008KT P6SM SCT040 BKN250
     FM282000 24007KT P6SM VCTS BKN050CB
     FM290100 VRB03KT P6SM BKN250=

Latest METAR

886
SAUS80 KWBC 290700
MTRTLH
METAR KTLH 290653Z AUTO 27003KT 10SM CLR 26/23 A2994 RMK AO2 SLP137
T02560233 $


USA.gov is the U.S. government's official web portal to all federal, state and local government web resources and services.